Time;durP1;ratioP1;P1;durP2;ratioP2;P2;SDS_P1;SDS_P2;PMS_P1;PMS_P2;Temp;Humidity;BMP_temperature;BMP_pressure;BME280_temperature;BME280_humidity;BME280_pressure;Samples;Min_cycle;Max_cycle;Signal;HPM_P1;HPM_P2
2022/03/02 00:00:28;;;;;;;34.35;20.77;;;15.30;61.80;;;;;;4062074;29;20453;-58
2022/03/02 00:02:50;;;;;;;29.00;19.85;;;15.30;61.40;;;;;;4047952;29;20064;-59
2022/03/02 00:05:13;;;;;;;30.38;20.70;;;15.30;61.20;;;;;;4052126;29;20084;-58
2022/03/02 00:07:37;;;;;;;28.85;19.90;;;15.20;61.00;;;;;;4047069;29;20052;-57
2022/03/02 00:09:59;;;;;;;31.63;21.10;;;15.20;61.00;;;;;;4047226;29;20052;-58
2022/03/02 00:12:21;;;;;;;30.67;21.00;;;15.20;61.50;;;;;;4046555;29;20056;-59
2022/03/02 00:14:43;;;;;;;29.35;19.48;;;15.20;60.80;;;;;;4047850;29;20061;-58
2022/03/02 00:17:06;;;;;;;34.38;21.02;;;15.20;60.70;;;;;;4047022;29;20593;-59
2022/03/02 00:19:28;;;;;;;29.77;20.63;;;15.20;61.20;;;;;;4047080;29;20155;-57
2022/03/02 00:21:50;;;;;;;30.73;21.27;;;15.10;60.50;;;;;;4047221;29;20063;-59
2022/03/02 00:24:13;;;;;;;30.70;21.38;;;15.10;60.90;;;;;;4057373;29;20059;-59
2022/03/02 00:26:36;;;;;;;29.95;20.52;;;15.10;61.30;;;;;;4051001;29;20077;-59
2022/03/02 00:28:58;;;;;;;31.35;20.55;;;15.10;61.40;;;;;;4050255;29;20436;-58
2022/03/02 00:31:20;;;;;;;28.83;20.88;;;15.10;61.50;;;;;;4036080;29;20053;-59
2022/03/02 00:33:42;;;;;;;31.27;20.25;;;15.10;61.60;;;;;;4058256;29;20080;-60
2022/03/02 00:36:05;;;;;;;29.58;19.40;;;15.00;61.80;;;;;;4065818;29;20134;-60
2022/03/02 00:38:27;;;;;;;34.28;21.08;;;15.00;62.10;;;;;;4061436;29;20063;-60
2022/03/02 00:40:51;;;;;;;30.33;19.65;;;15.10;62.40;;;;;;4049964;29;20045;-60
2022/03/02 00:43:13;;;;;;;30.80;20.85;;;15.00;63.10;;;;;;4049993;29;20072;-59
2022/03/02 00:45:36;;;;;;;27.35;20.08;;;15.10;63.30;;;;;;4050563;29;20103;-60
2022/03/02 00:47:58;;;;;;;31.95;21.40;;;15.10;63.30;;;;;;4049977;29;20121;-59
2022/03/02 00:50:21;;;;;;;31.50;21.00;;;15.20;63.20;;;;;;4050381;29;20060;-60
2022/03/02 00:52:44;;;;;;;32.42;22.10;;;15.20;63.10;;;;;;4050061;29;20052;-59
2022/03/02 00:55:06;;;;;;;30.33;20.77;;;15.30;62.90;;;;;;4052589;29;20116;-60
2022/03/02 00:57:30;;;;;;;31.23;21.55;;;15.30;62.70;;;;;;4065312;29;20054;-60
2022/03/02 00:59:52;;;;;;;32.40;22.27;;;15.30;62.70;;;;;;4063705;29;20063;-60
2022/03/02 01:02:14;;;;;;;33.20;21.85;;;15.30;62.50;;;;;;4065274;29;20056;-60
2022/03/02 01:04:37;;;;;;;32.70;22.30;;;15.30;62.30;;;;;;4052759;29;20053;-60
2022/03/02 01:06:59;;;;;;;33.28;21.98;;;15.30;62.10;;;;;;4049533;29;20065;-60
2022/03/02 01:09:21;;;;;;;32.95;22.90;;;15.30;62.20;;;;;;4049826;29;20048;-60
2022/03/02 01:11:43;;;;;;;35.70;22.65;;;15.30;62.20;;;;;;4049089;29;20199;-60
2022/03/02 01:14:07;;;;;;;33.25;22.63;;;15.30;62.10;;;;;;4049107;29;20049;-60
2022/03/02 01:16:29;;;;;;;32.67;21.83;;;15.20;61.50;;;;;;4049424;29;20051;-59
2022/03/02 01:18:52;;;;;;;34.70;22.45;;;15.20;61.80;;;;;;4060524;29;20056;-60
2022/03/02 01:21:14;;;;;;;33.25;22.38;;;15.20;62.60;;;;;;4065210;29;20048;-59
2022/03/02 01:23:36;;;;;;;33.42;23.88;;;15.10;61.80;;;;;;4058626;29;20475;-59
2022/03/02 01:25:58;;;;;;;33.60;23.33;;;15.10;62.00;;;;;;4050489;29;20056;-59
2022/03/02 01:28:20;;;;;;;35.03;23.25;;;15.20;62.70;;;;;;4062028;29;20491;-59
2022/03/02 01:30:44;;;;;;;32.92;21.83;;;15.20;61.90;;;;;;4065312;29;20055;-60
2022/03/02 01:33:06;;;;;;;32.63;22.20;;;15.30;62.60;;;;;;4064595;29;20502;-59
2022/03/02 01:35:28;;;;;;;34.97;23.25;;;15.30;62.60;;;;;;4049718;29;20146;-59
2022/03/02 01:37:51;;;;;;;36.25;23.83;;;15.30;62.60;;;;;;4034985;29;20136;-60
2022/03/02 01:40:14;;;;;;;33.95;23.15;;;15.40;62.60;;;;;;4049443;29;20060;-59
2022/03/02 01:42:36;;;;;;;34.90;24.60;;;15.40;62.60;;;;;;4049515;29;20056;-59
2022/03/02 01:45:01;;;;;;;36.00;24.38;;;15.40;62.50;;;;;;4064628;29;20063;-60
2022/03/02 01:47:28;;;;;;;34.15;23.90;;;15.40;63.10;;;;;;4064348;29;20059;-60
2022/03/02 01:49:50;;;;;;;36.20;25.10;;;15.40;62.10;;;;;;4063725;29;20091;-59
2022/03/02 01:52:13;;;;;;;35.00;24.00;;;15.50;62.00;;;;;;4064330;29;20044;-60
2022/03/02 01:54:35;;;;;;;33.65;24.10;;;15.50;61.90;;;;;;4063707;29;20115;-60
2022/03/02 01:56:56;;;;;;;34.33;23.48;;;15.50;62.20;;;;;;4063784;29;20131;-59
2022/03/02 01:59:19;;;;;;;31.15;22.27;;;15.50;62.50;;;;;;4064350;29;20134;-60
2022/03/02 02:01:41;;;;;;;32.95;22.50;;;15.50;60.80;;;;;;4064506;29;20055;-60
2022/03/02 02:04:06;;;;;;;40.15;26.48;;;15.60;61.70;;;;;;4050754;29;20063;-60
2022/03/02 02:06:28;;;;;;;34.05;22.67;;;15.60;61.70;;;;;;4049318;29;20075;-60
2022/03/02 02:08:52;;;;;;;35.72;24.80;;;15.60;61.20;;;;;;4049477;29;20044;-59
2022/03/02 02:11:15;;;;;;;35.85;23.67;;;15.60;60.70;;;;;;4047976;29;20127;-60
2022/03/02 02:13:37;;;;;;;36.00;23.10;;;15.70;61.40;;;;;;4049050;29;20063;-59
2022/03/02 02:15:59;;;;;;;34.90;24.30;;;15.70;61.30;;;;;;4059184;29;20059;-59
2022/03/02 02:18:22;;;;;;;34.08;23.67;;;15.70;61.50;;;;;;4050151;29;20135;-60
2022/03/02 02:20:46;;;;;;;34.70;23.90;;;15.70;60.90;;;;;;4064490;29;20054;-59
2022/03/02 02:23:09;;;;;;;35.45;23.23;;;15.70;60.60;;;;;;4059061;29;20063;-59
2022/03/02 02:25:31;;;;;;;36.53;25.33;;;15.70;60.40;;;;;;4064351;29;20067;-59
2022/03/02 02:27:53;;;;;;;37.20;25.80;;;15.70;60.90;;;;;;4064077;29;20067;-58
2022/03/02 02:30:16;;;;;;;36.83;24.35;;;15.70;61.20;;;;;;4034116;29;20144;-59
2022/03/02 02:32:39;;;;;;;37.22;24.48;;;15.60;61.00;;;;;;4048852;29;20124;-59
2022/03/02 02:35:01;;;;;;;38.20;25.52;;;15.60;60.90;;;;;;4048243;29;20109;-60
2022/03/02 02:37:26;;;;;;;34.88;24.20;;;15.50;60.80;;;;;;4048078;29;20056;-59
2022/03/02 02:39:55;;;;;;;38.58;25.10;;;15.50;61.60;;;;;;4061862;29;20479;-58
2022/03/02 02:42:17;;;;;;;34.33;24.35;;;15.60;61.80;;;;;;4045070;29;20053;-60
2022/03/02 02:44:39;;;;;;;38.42;25.75;;;15.60;61.90;;;;;;4048195;29;20056;-59
2022/03/02 02:47:01;;;;;;;36.33;25.13;;;15.70;61.20;;;;;;4048469;29;20059;-60
2022/03/02 02:49:24;;;;;;;36.22;25.25;;;15.70;60.90;;;;;;4048660;29;20076;-60
2022/03/02 02:51:46;;;;;;;39.35;25.67;;;15.80;60.20;;;;;;4048384;29;20051;-59
2022/03/02 02:54:09;;;;;;;37.58;25.08;;;15.80;60.00;;;;;;4048366;29;20513;-59
2022/03/02 02:56:31;;;;;;;41.45;25.60;;;15.80;60.40;;;;;;4051779;29;20491;-58
2022/03/02 02:58:54;;;;;;;39.33;27.00;;;15.70;60.60;;;;;;4059047;29;20059;-59
2022/03/02 03:01:17;;;;;;;39.22;25.52;;;15.70;60.50;;;;;;4063512;29;20060;-58
2022/03/02 03:03:39;;;;;;;39.70;26.83;;;15.70;61.10;;;;;;4047454;29;20396;-58
2022/03/02 03:06:02;;;;;;;34.13;25.17;;;15.70;59.80;;;;;;4048143;29;20060;-59
2022/03/02 03:08:24;;;;;;;40.40;26.80;;;15.70;59.90;;;;;;4048306;29;20491;-59
2022/03/02 03:10:48;;;;;;;37.83;26.98;;;15.70;59.90;;;;;;4048580;29;20055;-58
2022/03/02 03:13:10;;;;;;;40.15;26.00;;;15.70;58.60;;;;;;4049209;29;20057;-59
2022/03/02 03:15:33;;;;;;;36.58;25.42;;;15.60;59.20;;;;;;4047867;29;20079;-59
2022/03/02 03:17:56;;;;;;;34.95;25.42;;;15.60;59.80;;;;;;4058260;29;20147;-59
2022/03/02 03:20:22;;;;;;;35.17;25.10;;;15.60;60.60;;;;;;4063673;29;20056;-59
2022/03/02 03:22:44;;;;;;;41.80;27.63;;;15.60;61.10;;;;;;4051893;29;20055;-59
2022/03/02 03:25:08;;;;;;;40.65;26.08;;;15.60;61.60;;;;;;4047756;29;20080;-59
2022/03/02 03:27:31;;;;;;;38.35;26.95;;;15.60;61.40;;;;;;4053118;29;20462;-59
2022/03/02 03:29:54;;;;;;;39.35;25.60;;;15.60;61.30;;;;;;4048698;29;20695;-59
2022/03/02 03:32:15;;;;;;;39.67;25.70;;;15.60;62.50;;;;;;4063155;29;20052;-59
2022/03/02 03:34:38;;;;;;;40.05;25.45;;;15.60;61.50;;;;;;4062764;29;20051;-59
2022/03/02 03:37:00;;;;;;;38.47;25.42;;;15.60;61.40;;;;;;4053236;29;20091;-59
2022/03/02 03:39:22;;;;;;;37.90;25.30;;;15.60;61.10;;;;;;4047511;29;20048;-59
2022/03/02 03:41:44;;;;;;;38.78;26.65;;;15.60;60.90;;;;;;4052484;29;20056;-59
2022/03/02 03:44:08;;;;;;;40.63;26.60;;;15.60;60.20;;;;;;4062425;29;20067;-58
2022/03/02 03:46:30;;;;;;;36.38;26.35;;;15.60;60.90;;;;;;4061667;29;20052;-59
2022/03/02 03:48:53;;;;;;;36.92;24.83;;;15.60;60.60;;;;;;4062722;29;20099;-60
2022/03/02 03:51:15;;;;;;;38.38;25.35;;;15.60;59.70;;;;;;4062987;29;20062;-59
2022/03/02 03:53:37;;;;;;;35.45;25.30;;;15.60;60.90;;;;;;4062726;29;20434;-59
2022/03/02 03:55:59;;;;;;;38.08;25.10;;;15.60;60.40;;;;;;4057912;29;20053;-60
2022/03/02 03:58:21;;;;;;;38.47;26.15;;;15.60;60.90;;;;;;4059270;29;20056;-60
2022/03/02 04:00:45;;;;;;;36.83;25.70;;;15.60;60.90;;;;;;4063040;29;20059;-60
2022/03/02 04:03:07;;;;;;;36.97;25.08;;;15.60;61.80;;;;;;4047345;29;20163;-59
2022/03/02 04:05:30;;;;;;;38.75;24.60;;;15.60;60.90;;;;;;4047384;29;20045;-59
2022/03/02 04:07:51;;;;;;;37.22;26.23;;;15.60;61.20;;;;;;4047114;29;20444;-59
2022/03/02 04:10:14;;;;;;;39.50;26.83;;;15.60;61.20;;;;;;4047488;29;20056;-59
2022/03/02 04:12:37;;;;;;;37.78;24.67;;;15.70;60.90;;;;;;4046628;29;20060;-59
2022/03/02 04:14:59;;;;;;;35.75;25.25;;;15.70;60.10;;;;;;4047121;29;20059;-59
2022/03/02 04:17:23;;;;;;;33.53;24.52;;;15.80;60.50;;;;;;4047431;29;20063;-59
2022/03/02 04:19:46;;;;;;;35.28;24.50;;;15.90;59.70;;;;;;4046511;29;20048;-59
2022/03/02 04:22:08;;;;;;;34.72;24.80;;;15.90;60.00;;;;;;4047397;29;20415;-59
2022/03/02 04:24:30;;;;;;;37.08;25.42;;;15.90;59.90;;;;;;4047634;29;20063;-59
2022/03/02 04:26:52;;;;;;;34.42;24.23;;;15.80;59.60;;;;;;4059233;29;20060;-59
2022/03/02 04:29:14;;;;;;;36.17;24.08;;;15.80;60.40;;;;;;4059314;29;20060;-58
2022/03/02 04:31:36;;;;;;;34.88;24.75;;;15.90;60.40;;;;;;4047466;29;20052;-58
2022/03/02 04:34:00;;;;;;;34.28;23.60;;;15.90;60.50;;;;;;4047361;29;20056;-59
2022/03/02 04:36:22;;;;;;;36.13;25.00;;;15.90;59.80;;;;;;4047257;29;20071;-59
2022/03/02 04:38:45;;;;;;;34.45;24.67;;;15.90;60.50;;;;;;4047318;29;20104;-59
2022/03/02 04:41:07;;;;;;;34.10;24.10;;;15.80;60.20;;;;;;4047131;29;20045;-59
2022/03/02 04:43:29;;;;;;;35.53;24.15;;;15.90;60.30;;;;;;4047069;29;20503;-59
2022/03/02 04:45:51;;;;;;;33.58;23.80;;;15.90;60.40;;;;;;4051028;29;20446;-59
2022/03/02 04:48:13;;;;;;;34.05;23.77;;;15.80;60.40;;;;;;4061807;29;20115;-59
2022/03/02 04:50:39;;;;;;;35.03;23.42;;;15.80;60.40;;;;;;4062558;29;20055;-59
2022/03/02 04:53:02;;;;;;;33.85;23.50;;;15.80;61.60;;;;;;4062255;29;20142;-59
2022/03/02 04:55:24;;;;;;;35.25;25.60;;;15.70;60.10;;;;;;4062078;29;20423;-59
2022/03/02 04:57:48;;;;;;;31.77;23.10;;;15.60;60.80;;;;;;4062397;29;20158;-59
2022/03/02 05:00:13;;;;;;;32.83;23.15;;;15.60;61.20;;;;;;4062575;29;20052;-58
2022/03/02 05:02:35;;;;;;;37.67;25.13;;;15.60;61.60;;;;;;4061683;29;20406;-57
2022/03/02 05:04:57;;;;;;;31.33;22.90;;;15.60;61.40;;;;;;4061897;29;20055;-59
2022/03/02 05:07:20;;;;;;;33.58;23.60;;;15.70;60.90;;;;;;4062532;29;20505;-58
2022/03/02 05:09:43;;;;;;;33.65;23.45;;;15.70;60.90;;;;;;4064984;29;20063;-58
2022/03/02 05:12:06;;;;;;;34.50;24.17;;;15.70;61.10;;;;;;4065228;29;20187;-58
2022/03/02 05:14:28;;;;;;;34.70;24.05;;;15.70;60.30;;;;;;4057501;29;20064;-59
2022/03/02 05:16:50;;;;;;;34.25;24.25;;;15.70;60.20;;;;;;4050002;29;20116;-58
2022/03/02 05:19:12;;;;;;;35.25;23.52;;;15.70;59.50;;;;;;4050772;29;20668;-59
2022/03/02 05:21:34;;;;;;;33.03;23.48;;;15.70;60.20;;;;;;4049749;29;20052;-60
2022/03/02 05:23:58;;;;;;;33.75;24.23;;;15.70;60.20;;;;;;4049651;29;20075;-59
2022/03/02 05:26:20;;;;;;;35.45;23.85;;;15.70;59.90;;;;;;4049740;29;20065;-59
2022/03/02 05:28:42;;;;;;;34.17;22.85;;;15.70;60.00;;;;;;4063949;29;20040;-59
2022/03/02 05:31:05;;;;;;;33.78;24.50;;;15.70;60.90;;;;;;4064923;29;20064;-59
2022/03/02 05:33:27;;;;;;;33.50;22.45;;;15.80;61.00;;;;;;4064347;29;20465;-59
2022/03/02 05:35:49;;;;;;;34.05;24.20;;;15.80;61.00;;;;;;4064357;29;20052;-59
2022/03/02 05:38:11;;;;;;;34.53;24.75;;;15.80;60.70;;;;;;4065130;29;20121;-59
2022/03/02 05:40:35;;;;;;;35.97;25.30;;;15.80;60.50;;;;;;4064616;29;20056;-59
2022/03/02 05:42:59;;;;;;;36.30;24.65;;;15.90;59.30;;;;;;4064921;29;20558;-59
2022/03/02 05:45:21;;;;;;;35.10;24.13;;;15.90;59.90;;;;;;4048273;29;20139;-59
2022/03/02 05:47:43;;;;;;;33.22;23.73;;;15.90;59.30;;;;;;4048853;29;20080;-59
2022/03/02 05:50:08;;;;;;;35.17;24.63;;;15.90;59.50;;;;;;4048861;29;20808;-60
2022/03/02 05:52:30;;;;;;;33.75;23.88;;;16.00;60.10;;;;;;4049041;29;20055;-59
2022/03/02 05:54:53;;;;;;;33.63;23.23;;;16.10;59.80;;;;;;4049391;29;20159;-58
2022/03/02 05:57:16;;;;;;;33.58;23.80;;;16.20;59.80;;;;;;4052311;29;20048;-59
2022/03/02 05:59:38;;;;;;;36.33;23.20;;;16.20;59.30;;;;;;4064190;29;20056;-59
2022/03/02 06:02:01;;;;;;;35.03;24.70;;;16.20;59.30;;;;;;4064591;29;20057;-59
2022/03/02 06:04:27;;;;;;;36.90;24.02;;;16.20;59.20;;;;;;4063118;29;20120;-60
2022/03/02 06:06:49;;;;;;;33.67;23.92;;;16.20;59.40;;;;;;4063820;29;20052;-61
2022/03/02 06:09:12;;;;;;;34.25;24.75;;;16.20;59.50;;;;;;4048977;29;20060;-59
2022/03/02 06:11:35;;;;;;;38.30;25.35;;;16.10;59.30;;;;;;4047466;29;20059;-59
2022/03/02 06:13:59;;;;;;;34.92;24.13;;;16.00;58.70;;;;;;4049331;29;20060;-60
2022/03/02 06:16:21;;;;;;;35.50;24.25;;;16.00;59.20;;;;;;4049090;29;20048;-60
2022/03/02 06:18:44;;;;;;;36.00;26.13;;;16.00;59.60;;;;;;4049149;29;20062;-60
2022/03/02 06:21:07;;;;;;;39.15;26.10;;;16.00;58.70;;;;;;4048224;29;20044;-60
2022/03/02 06:23:30;;;;;;;36.42;24.58;;;16.00;58.70;;;;;;4056167;29;20080;-59
2022/03/02 06:25:52;;;;;;;37.15;25.80;;;15.90;58.40;;;;;;4064417;29;20528;-59
2022/03/02 06:28:15;;;;;;;38.67;25.52;;;16.00;58.80;;;;;;4059343;29;20059;-60
2022/03/02 06:30:38;;;;;;;34.45;23.98;;;16.00;58.70;;;;;;4063371;29;20055;-60
2022/03/02 06:33:01;;;;;;;37.70;24.70;;;16.00;59.10;;;;;;4049089;29;20052;-60
2022/03/02 06:35:23;;;;;;;36.47;25.00;;;16.00;59.10;;;;;;4063994;29;20423;-59
2022/03/02 06:37:46;;;;;;;32.28;23.08;;;16.00;59.80;;;;;;4064270;29;20198;-59
2022/03/02 06:40:11;;;;;;;37.38;25.50;;;16.00;59.70;;;;;;4063627;29;20052;-59
2022/03/02 06:42:46;;;;;;;35.78;24.00;;;16.00;59.80;;;;;;4063630;29;20124;-60
2022/03/02 06:45:15;;;;;;;36.75;25.60;;;16.00;59.10;;;;;;4063044;29;20395;-60
2022/03/02 06:47:51;;;;;;;36.92;25.52;;;16.00;59.40;;;;;;4063517;29;20108;-59
2022/03/02 06:50:14;;;;;;;33.22;24.23;;;16.00;59.30;;;;;;4063526;29;20864;-59
2022/03/02 06:52:39;;;;;;;35.22;25.05;;;15.90;58.60;;;;;;4063059;29;20056;-59
2022/03/02 06:55:04;;;;;;;35.05;24.77;;;15.90;59.10;;;;;;4063610;29;20060;-58
2022/03/02 06:57:29;;;;;;;35.95;24.65;;;15.90;57.70;;;;;;4063423;29;20475;-60
2022/03/02 06:59:53;;;;;;;38.65;24.67;;;15.90;59.20;;;;;;4062923;29;20435;-61
2022/03/02 07:02:23;;;;;;;32.83;24.60;;;15.90;58.50;;;;;;4047926;29;20052;-60
2022/03/02 07:04:47;;;;;;;34.70;24.63;;;16.00;57.00;;;;;;4047741;29;20116;-60
2022/03/02 07:07:11;;;;;;;36.35;24.70;;;16.00;56.20;;;;;;4054271;29;20047;-61
2022/03/02 07:09:34;;;;;;;37.30;24.63;;;16.00;56.80;;;;;;4061551;29;20060;-60
2022/03/02 07:11:58;;;;;;;38.47;26.70;;;16.00;57.60;;;;;;4063386;29;20410;-59
2022/03/02 07:14:21;;;;;;;36.70;25.27;;;15.90;57.40;;;;;;4063157;29;20044;-60
2022/03/02 07:16:44;;;;;;;36.30;25.02;;;15.90;56.50;;;;;;4063298;29;20064;-60
2022/03/02 07:19:06;;;;;;;33.95;25.55;;;15.90;56.40;;;;;;4063095;29;20047;-60
2022/03/02 07:21:30;;;;;;;34.58;24.98;;;15.90;56.60;;;;;;4063088;29;20044;-60
2022/03/02 07:23:56;;;;;;;36.50;25.73;;;15.80;55.20;;;;;;4073472;29;20048;-60
2022/03/02 07:26:19;;;;;;;40.00;26.90;;;15.80;55.40;;;;;;4057749;29;20478;-60
2022/03/02 07:28:42;;;;;;;39.28;27.20;;;15.80;56.00;;;;;;4048497;29;20569;-60
2022/03/02 07:31:05;;;;;;;36.38;24.83;;;15.70;55.40;;;;;;4062307;29;20463;-59
2022/03/02 07:33:30;;;;;;;35.78;26.48;;;15.70;57.00;;;;;;4062488;29;20056;-60
2022/03/02 07:35:57;;;;;;;34.88;25.13;;;15.70;57.70;;;;;;4063152;29;20421;-60
2022/03/02 07:38:22;;;;;;;36.42;25.70;;;15.70;58.10;;;;;;4062843;29;20048;-60
2022/03/02 07:40:45;;;;;;;34.42;25.30;;;15.80;56.40;;;;;;4063324;29;20486;-60
2022/03/02 07:43:07;;;;;;;37.33;26.25;;;15.90;55.20;;;;;;4055240;29;20044;-60
2022/03/02 07:45:29;;;;;;;35.67;24.27;;;16.00;56.80;;;;;;4049474;29;20120;-60
2022/03/02 07:47:52;;;;;;;35.92;25.88;;;16.10;56.90;;;;;;4050291;29;20164;-60
2022/03/02 07:50:15;;;;;;;36.13;24.80;;;16.10;55.00;;;;;;4047331;29;20072;-60
2022/03/02 07:52:38;;;;;;;36.85;26.25;;;16.10;55.00;;;;;;4034072;29;20168;-59
2022/03/02 07:55:07;;;;;;;38.70;25.67;;;16.00;54.80;;;;;;4047799;29;20059;-60
2022/03/02 07:57:30;;;;;;;35.53;25.20;;;16.00;54.80;;;;;;4052419;29;20048;-60
2022/03/02 07:59:54;;;;;;;36.42;26.35;;;15.90;54.80;;;;;;4048648;29;20049;-60
2022/03/02 08:02:19;;;;;;;37.97;25.40;;;15.90;55.90;;;;;;4058022;29;20135;-59
2022/03/02 08:04:43;;;;;;;36.05;25.23;;;15.80;56.20;;;;;;4047568;29;20056;-60
2022/03/02 08:07:06;;;;;;;35.28;24.63;;;15.80;56.50;;;;;;4047608;29;20107;-58
2022/03/02 08:09:28;;;;;;;37.88;26.23;;;15.80;56.10;;;;;;4047978;29;20088;-58
2022/03/02 08:11:52;;;;;;;39.80;26.88;;;15.70;55.70;;;;;;4047100;29;20112;-60
2022/03/02 08:14:14;;;;;;;35.15;25.70;;;15.80;55.20;;;;;;4047477;29;20514;-60
2022/03/02 08:16:36;;;;;;;37.08;25.15;;;15.80;56.20;;;;;;4046846;29;20076;-60
2022/03/02 08:19:01;;;;;;;34.83;25.00;;;15.90;57.20;;;;;;4049670;29;20769;-60
2022/03/02 08:21:27;;;;;;;33.22;23.60;;;15.90;56.40;;;;;;4047290;29;20590;-60
2022/03/02 08:23:52;;;;;;;38.22;26.55;;;15.90;57.50;;;;;;4047299;29;20057;-60
2022/03/02 08:26:18;;;;;;;39.38;26.55;;;15.90;55.40;;;;;;4046992;29;20550;-60
2022/03/02 08:28:45;;;;;;;39.38;24.73;;;16.00;55.70;;;;;;4061252;29;20056;-60
2022/03/02 08:31:09;;;;;;;36.08;23.90;;;16.10;56.20;;;;;;4046233;29;20100;-60
2022/03/02 08:33:35;;;;;;;37.15;25.60;;;16.10;55.90;;;;;;4046461;29;20052;-59
2022/03/02 08:36:00;;;;;;;33.35;23.33;;;16.10;56.00;;;;;;4055692;29;20056;-60
2022/03/02 08:38:23;;;;;;;36.35;23.27;;;16.10;56.90;;;;;;4058005;29;20414;-60
2022/03/02 08:40:45;;;;;;;37.35;24.42;;;16.10;55.80;;;;;;4045955;29;20109;-60
2022/03/02 08:43:07;;;;;;;35.47;24.13;;;16.10;55.90;;;;;;4047745;29;20075;-60
2022/03/02 08:45:31;;;;;;;35.15;24.88;;;16.20;54.70;;;;;;4048906;29;20084;-60
2022/03/02 08:47:54;;;;;;;36.85;24.50;;;16.20;55.00;;;;;;4049761;29;20052;-60
2022/03/02 08:50:17;;;;;;;34.70;25.50;;;16.20;54.40;;;;;;4050381;29;20044;-60
2022/03/02 08:52:39;;;;;;;38.75;25.13;;;16.20;54.50;;;;;;4049795;29;20052;-60
2022/03/02 08:55:04;;;;;;;39.28;26.85;;;16.20;54.60;;;;;;4062451;29;20135;-60
2022/03/02 08:57:27;;;;;;;34.85;26.35;;;16.20;56.00;;;;;;4065301;29;20414;-60
2022/03/02 08:59:52;;;;;;;38.35;23.85;;;16.20;54.00;;;;;;4065229;29;20135;-60
2022/03/02 09:02:21;;;;;;;35.83;25.38;;;16.10;54.10;;;;;;4053613;29;20056;-60
2022/03/02 09:04:45;;;;;;;33.88;23.52;;;16.10;54.80;;;;;;4049993;29;20056;-60
2022/03/02 09:07:08;;;;;;;38.08;23.60;;;16.00;54.60;;;;;;4049839;29;20052;-60
2022/03/02 09:09:30;;;;;;;36.38;24.63;;;16.00;55.10;;;;;;4059816;29;20059;-60
2022/03/02 09:11:52;;;;;;;36.53;26.40;;;15.90;54.90;;;;;;4065240;29;20059;-61
2022/03/02 09:14:15;;;;;;;33.60;23.58;;;15.90;54.40;;;;;;4065087;29;20056;-60
2022/03/02 09:16:39;;;;;;;38.53;26.75;;;15.90;55.60;;;;;;4065042;29;20047;-60
2022/03/02 09:19:03;;;;;;;31.33;22.33;;;16.00;55.20;;;;;;4059036;29;20484;-61
2022/03/02 09:21:27;;;;;;;36.92;25.92;;;16.00;54.50;;;;;;4049871;29;20430;-60
2022/03/02 09:23:50;;;;;;;37.40;26.88;;;16.00;55.20;;;;;;4048302;29;20068;-60
2022/03/02 09:26:14;;;;;;;35.25;22.67;;;16.00;55.10;;;;;;4050110;29;20060;-58
2022/03/02 09:28:38;;;;;;;34.75;24.45;;;16.00;54.50;;;;;;4063087;29;20059;-64
2022/03/02 09:31:03;;;;;;;34.15;23.33;;;16.00;55.50;;;;;;4064998;29;20059;-63
2022/03/02 09:33:26;;;;;;;36.70;23.92;;;16.00;56.30;;;;;;4064185;29;20103;-60
2022/03/02 09:35:54;;;;;;;35.50;23.90;;;16.00;54.50;;;;;;4054904;29;20075;-66
2022/03/02 09:38:20;;;;;;;36.00;24.67;;;16.00;56.40;;;;;;4049415;29;20056;-65
2022/03/02 09:40:44;;;;;;;35.05;24.33;;;16.00;54.80;;;;;;4034734;29;20429;-64
2022/03/02 09:43:09;;;;;;;33.47;22.67;;;16.00;55.90;;;;;;4048785;29;20107;-66
2022/03/02 09:45:34;;;;;;;37.05;23.15;;;16.00;55.80;;;;;;4048958;29;20055;-68
2022/03/02 09:47:57;;;;;;;34.35;24.92;;;16.00;56.10;;;;;;4034469;29;20579;-66
2022/03/02 09:50:22;;;;;;;37.00;24.55;;;16.10;55.40;;;;;;4048642;29;20080;-64
2022/03/02 09:52:47;;;;;;;38.00;24.27;;;16.10;54.90;;;;;;4056174;29;20044;-64
2022/03/02 09:55:13;;;;;;;32.83;23.50;;;16.10;56.30;;;;;;4049303;29;20489;-63
2022/03/02 09:57:41;;;;;;;34.08;23.05;;;16.10;54.30;;;;;;4064219;29;20060;-66
2022/03/02 10:00:05;;;;;;;37.60;22.50;;;16.10;54.60;;;;;;4064661;29;20221;-65
2022/03/02 10:02:37;;;;;;;33.67;24.48;;;16.00;55.60;;;;;;4064260;29;20744;-65
2022/03/02 10:05:05;;;;;;;32.70;22.73;;;16.10;55.10;;;;;;4063867;29;20395;-65
2022/03/02 10:07:30;;;;;;;32.05;22.58;;;16.20;55.10;;;;;;4064412;29;20067;-65
2022/03/02 10:10:04;;;;;;;37.35;23.15;;;16.20;56.50;;;;;;4063638;29;20059;-64
2022/03/02 10:12:28;;;;;;;33.75;23.10;;;16.20;55.90;;;;;;4064209;29;20517;-64
2022/03/02 10:14:51;;;;;;;32.22;23.30;;;16.20;55.70;;;;;;4064040;29;20048;-64
2022/03/02 10:17:19;;;;;;;30.10;23.42;;;16.20;53.80;;;;;;4064726;29;20040;-64
2022/03/02 10:19:53;;;;;;;33.75;22.98;;;16.20;54.00;;;;;;4063988;29;20872;-64
2022/03/02 10:22:37;;;;;;;35.88;23.58;;;16.20;55.60;;;;;;4063873;29;20103;-64
2022/03/02 10:25:05;;;;;;;35.47;22.73;;;16.10;55.70;;;;;;4063656;29;20463;-64
2022/03/02 10:27:35;;;;;;;29.67;21.00;;;16.20;54.50;;;;;;4054714;29;20046;-64
2022/03/02 10:30:07;;;;;;;32.63;22.13;;;16.20;54.90;;;;;;4062680;29;20063;-64
2022/03/02 10:32:33;;;;;;;30.88;22.25;;;16.20;55.00;;;;;;4040272;29;20509;-65
2022/03/02 10:35:03;;;;;;;30.05;21.58;;;16.20;53.30;;;;;;4047960;29;20063;-64
2022/03/02 10:37:31;;;;;;;31.60;21.80;;;16.20;54.40;;;;;;4048484;29;20089;-64
2022/03/02 10:39:57;;;;;;;32.72;22.48;;;16.20;53.90;;;;;;4047964;29;20060;-64
2022/03/02 10:42:25;;;;;;;30.77;22.77;;;16.20;53.90;;;;;;4048543;29;20495;-64
2022/03/02 10:44:54;;;;;;;33.55;22.20;;;16.20;55.70;;;;;;4032980;29;20048;-64
2022/03/02 10:47:21;;;;;;;32.75;23.73;;;16.30;55.10;;;;;;4048273;29;20135;-65
2022/03/02 10:49:45;;;;;;;31.63;23.40;;;16.30;54.90;;;;;;4048137;29;20056;-65
2022/03/02 10:52:11;;;;;;;32.72;22.98;;;16.30;53.40;;;;;;4047726;29;20056;-64
2022/03/02 10:54:34;;;;;;;34.42;22.65;;;16.30;52.90;;;;;;4047710;29;20135;-65
2022/03/02 10:57:03;;;;;;;29.27;22.52;;;16.30;53.00;;;;;;4048717;29;20079;-65
2022/03/02 10:59:26;;;;;;;33.45;22.73;;;16.20;53.50;;;;;;4059319;29;20052;-65
2022/03/02 11:01:50;;;;;;;31.00;23.02;;;16.30;54.00;;;;;;4060733;29;20056;-66
2022/03/02 11:04:13;;;;;;;31.40;23.60;;;16.30;54.00;;;;;;4045296;29;20545;-65
2022/03/02 11:06:37;;;;;;;33.03;23.10;;;16.30;53.90;;;;;;4048185;29;20436;-65
2022/03/02 11:09:02;;;;;;;30.08;21.52;;;16.40;52.60;;;;;;4058576;29;20055;-65
2022/03/02 11:11:26;;;;;;;35.42;24.13;;;16.50;54.90;;;;;;4033683;29;20052;-64
2022/03/02 11:13:51;;;;;;;32.83;22.92;;;16.60;52.40;;;;;;4050354;29;20511;-68
2022/03/02 11:16:21;;;;;;;31.65;21.88;;;16.60;53.00;;;;;;4062224;29;20096;-68
2022/03/02 11:18:48;;;;;;;29.80;21.50;;;16.60;53.80;;;;;;4047568;29;20051;-66
2022/03/02 11:21:20;;;;;;;30.80;21.63;;;16.60;55.50;;;;;;4062227;29;20565;-67
2022/03/02 11:23:44;;;;;;;29.50;21.25;;;16.60;55.50;;;;;;4062898;29;20044;-66
2022/03/02 11:26:08;;;;;;;30.67;22.33;;;16.60;54.20;;;;;;4058645;29;20055;-66
2022/03/02 11:28:31;;;;;;;30.73;22.05;;;16.70;53.60;;;;;;4053097;29;20060;-67
2022/03/02 11:30:55;;;;;;;28.80;21.55;;;16.70;55.20;;;;;;4063179;29;20052;-66
2022/03/02 11:33:24;;;;;;;32.25;22.15;;;16.70;54.90;;;;;;4063066;29;20052;-68
2022/03/02 11:35:47;;;;;;;30.63;22.13;;;16.70;55.30;;;;;;4052859;29;20087;-68
2022/03/02 11:38:12;;;;;;;32.50;21.27;;;16.70;55.20;;;;;;4046428;29;20491;-67
2022/03/02 11:40:43;;;;;;;32.15;21.17;;;16.70;53.90;;;;;;4047664;29;20059;-67
2022/03/02 11:43:13;;;;;;;29.65;21.38;;;16.70;54.80;;;;;;4058382;29;20052;-69
2022/03/02 11:45:38;;;;;;;30.58;21.50;;;16.60;53.20;;;;;;4048063;29;20057;-65
2022/03/02 11:48:10;;;;;;;32.25;22.38;;;16.50;55.00;;;;;;4058323;29;20051;-67
2022/03/02 11:50:34;;;;;;;29.77;20.88;;;16.50;55.30;;;;;;4062325;29;20052;-66
2022/03/02 11:52:56;;;;;;;31.58;21.52;;;16.40;54.50;;;;;;4047080;29;20155;-67
2022/03/02 11:55:20;;;;;;;30.77;21.20;;;16.40;56.10;;;;;;4046970;29;20055;-67
2022/03/02 11:57:48;;;;;;;28.77;20.67;;;16.40;54.20;;;;;;4054063;29;20051;-67
2022/03/02 12:00:13;;;;;;;28.60;21.13;;;16.30;56.10;;;;;;4062744;29;20059;-67
2022/03/02 12:02:42;;;;;;;29.60;21.48;;;16.30;55.50;;;;;;4062820;29;20060;-67
2022/03/02 12:05:07;;;;;;;28.45;21.10;;;16.20;53.80;;;;;;4062393;29;20052;-67
2022/03/02 12:07:38;;;;;;;31.10;20.90;;;16.10;52.80;;;;;;4062791;29;20044;-66
2022/03/02 12:10:01;;;;;;;28.48;21.35;;;16.10;53.90;;;;;;4048367;29;20518;-67